Eastend, Canada
Current Conditions -  °F | °C
As of 10:17 AM on Wednesday 26 Nov 2014 (Local Time) from CYYN Reporting Station
Light Snow Light Snow  
Wind Chill: -3°   Ceiling: 2100
Heat Index: 10°   Visibility: 9mi
Dew Point:   Wind: 10mph
Humidity: 92%   Direction: 150°SSE
Pressure: 30.24"   Gusts: NA
Location:  49.52°N, 108.82°W
Report Text: CYYN 261617Z AUTO 15009KT 9SM -SN SCT006 OVC021 M12/M13 A3024 RMK SLP296
Loading
Personal Weather Stations






























Interactive Weather Map New forecast layout! Learn more

10-Day Weather Forecast

Advertisements
Track Severe Weather on mobile